Logo AVAMET
Benvolgut visitant, si us plau, ingressa Recuperar contrasenya
AVAMET paisatges

Inforatge Castelló de la Plana PortCastelló

Dades diàries. Acumulats / Últims 30 dies disponibles

Data Temperatura (°C) Humitat rel. (%) Pressió rel. (hPa) Vent (km/h) Precipitació
Mínima Mitjana Màxima Amplitud
tèrmica
Mínima Mitjana Màxima Mínima Mitjana Màxima Predom. Mitjana Ràfega
màxima
Total
(mm)
Índex-n
Mínima Mitjana Màxima Mínima Mitjana Màxima n
0 a 1
P0 max
mm 5'
Dades mensuals acumulades fins l'últim dia disponible
01/2021 0,5 3,9 7,9 8,2 7,7 12,4 20,6 20,1 30 64 94 1.004 1.017 1.029   7,6 43,5 19,6
Dades anuals acumulades fins l'últim dia disponible
2021 0,5 3,9 7,9 8,2 7,7 12,4 20,6 20,1 30 64 94 1.004 1.017 1.029   7,6 43,5 19,6
Últims 30 dies disponibles
18-01-2021 6,6     11,7     15,5 8,9 56 77 90 1.025 1.027 1.029 SO 5,1 29,0 0,0
17-01-2021 7,9     13,9     20,6 12,7 30 47 73 1.022 1.025 1.027 W 8,4 30,6 0,0
16-01-2021 4,5     9,6     14,6 10,1 39 61 76 1.022 1.025 1.027 WNW 6,1 22,5 0,0
15-01-2021 3,8     11,0     15,2 11,4 41 56 81 1.021 1.022 1.024 WNW 6,8 35,4 0,0
14-01-2021 2,0     8,0     13,3 11,3 59 72 81 1.022 1.024 1.027 NW 3,1 20,9 0,0
13-01-2021 1,8     7,6     14,1 12,3 42 65 79 1.026 1.027 1.028 WNW 5,1 22,5 0,0
12-01-2021 1,8     5,8     11,4 9,6 35 61 80 1.025 1.026 1.028 W 6,4 25,7 0,0
11-01-2021 3,4     6,5     10,5 7,1 52 66 74 1.017 1.020 1.025 WNW 6,1 20,9 0,0
10-01-2021 5,1     7,1     9,0 3,9 65 80 94 1.007 1.012 1.017 NW 6,1 16,1 0,8
09-01-2021 3,7     5,8     7,7 4,0 78 85 93 1.004 1.006 1.009 N 13,8 43,5 9,6 0,51 0,60
08-01-2021 4,5     6,2     8,5 4,0 66 77 93 1.009 1.012 1.014 NW 12,9 40,2 0,8
07-01-2021 4,3     6,9     9,8 5,5 48 74 93 1.011 1.013 1.015 NW 10,8 35,4 7,2 0,20
06-01-2021 1,8     5,9     10,9 9,1 50 64 79 1.012 1.014 1.016 WNW 6,0 22,5 0,0
05-01-2021 0,5     6,2     11,3 10,8 41 59 74 1.010 1.011 1.013 WNW 6,1 19,3 0,0
04-01-2021 2,1     8,1     13,3 11,2 34 54 72 1.008 1.010 1.012 WNW 6,9 29,0 0,0
03-01-2021 5,1     9,3     13,2 8,1 35 44 52 1.010 1.011 1.013 SW 8,4 32,2 0,0
02-01-2021 4,4     7,9     11,7 7,3 39 50 65 1.007 1.008 1.010 WNW 10,6 37,0 0,0
01-01-2021 6,2     9,6     13,4 7,2 44 62 79 1.005 1.006 1.008 WNW 7,2 43,5 1,2
31-12-2020 6,1     10,9     16,2 10,1 43 56 66 1.008 1.012 1.016 OSO 6,8 24,1 0,0
30-12-2020 4,1     10,6     16,1 12,0 34 49 70 1.008 1.013 1.017 WNW 6,6 30,6 0,0
29-12-2020 7,4     11,8     15,9 8,5 34 49 71 1.001 1.003 1.008 SW 13,8 43,5 0,0
28-12-2020 9,8     12,8     16,2 6,4 30 48 70 993 998 1.002 SW 18,5 56,3 0,0
27-12-2020 3,2     9,5     15,1 11,9 36 49 64 999 1.011 1.022 SW 7,4 48,3 0,0
26-12-2020 5,7     9,8     14,6 8,9 32 43 56 1.022 1.024 1.026 WNW 7,7 43,5 0,0
25-12-2020 8,1     10,8     14,0 5,9 21 48 78 1.021 1.023 1.027 NW 17,1 64,4 0,0
24-12-2020 7,6     11,9     15,0 7,4 67 85 93 1.021 1.022 1.023 NW 3,7 19,3 0,2
23-12-2020 7,1     11,2     15,7 8,6 78 88 93 1.021 1.023 1.026 NW 2,6 14,5 0,0
22-12-2020 7,6     12,3     16,7 9,1 66 81 88 1.026 1.027 1.029 NW 2,1 12,9 0,0
21-12-2020 8,2     12,0     15,9 7,7 59 77 87 1.026 1.028 1.028 WNW 3,9 17,7 0,0
20-12-2020 8,3     12,8     17,7 9,4 56 81 89 1.020 1.023 1.028 WNW 3,2 17,7 0,0
Últims 13 mesos disponibles
12/2020 3,2 7,8 10,4 12,2 14,0 16,7 21,2 18,0 42 65 88 995 1.014 1.028 WNW 7,3 64,4 4,0
11/2020 6,8 11,4 16,8 15,3 16,3 19,2 23,9 17,1 63 82 90 1.006 1.022 1.029 WNW 7,7 75,6 118,0
10/2020 8,3 13,8 18,3 18,6 18,5 22,8 28,2 19,9 44 64 84 997 1.017 1.026 WNW 7,0 69,2 6,0
09/2020 14,4 18,6 21,5 23,1 22,8 26,8 31,2 16,8 32 68 80 1.011 1.017 1.024 WNW 6,4 54,7 15,0
08/2020 16,4 22,2 26,1 26,3 25,8 29,4 31,4 15,0 54 74 84 1.005 1.014 1.020 E 6,9 35,4 8,6
07/2020 19,3 21,9 24,4 25,9 26,5 28,8 31,2 11,9 57 76 84 1.012 1.017 1.021 E 7,9 57,9 9,0
06/2020 14,0 18,2 22,1 22,4 21,9 25,7 29,8 15,8 44 74 84 1.004 1.015 1.021 E 7,6 51,5 41,2
05/2020 12,8 16,2 20,7 20,4 19,4 24,0 29,9 17,1 51 75 85 1.005 1.017 1.028 E 7,9 51,5 47,4
04/2020 7,5 12,4 17,2 15,7 14,1 19,1 28,0 20,5 53 82 93 1.005 1.016 1.026 E 7,5 51,5 132,6
03/2020 5,2 10,0 16,8 13,8 11,2 17,0 24,9 19,7 45 76 94 1.005 1.017 1.027 NE 11,3 77,2 106,0
02/2020 5,4 8,8 12,8 13,5 14,6 17,8 25,2 19,8 58 80 91 1.012 1.025 1.033 NW 4,9 53,1 0,6
01/2020 1,6 6,5 13,4 10,6 11,3 15,1 22,0 20,4 67 81 95 1.018 1.025 1.032 NW 8,2 90,1 56,0
12/2019 4,1 9,3 17,8 13,5 13,6 17,5 26,3 22,2 47 77 95 1.001 1.018 1.033 WNW 8,1 78,9 151,0
Tots els anys disponibles
2020 1,6 14,0 26,1 18,2 11,2 21,9 31,4 29,8 32 74 95 995 1.018 1.033 WNW 7,6 90,1 544,4
2019 2,7 13,5 25,2 17,8 11,9 21,6 33,1 30,4 0 71 98 0 1.010 1.033 SO 8,1 95,0 288,6
Temperatura (°C)
Humitat relativa (%)
Velocitat del vent i ràfega màxima (km/h)
Direcció del vent (°)
Pressió (hPa)
Precipitació (mm)
Nota sobre les dades: s'avisa a l'usuari de la provisionalitat i no oficialitat d'aquestes dades
Logo AVAMET blanc
Web allotjada a Sollutia
Llicència de Creative CommonsLa web d'AVAMET i els seus continguts estan subjectes a una llicència de
Reconeixement - No Comercial - Compartir igual
Avís legal - Política de privacitat - Política de cookies
NOVES ESTACIONS: Rossell - la Vila (Soci), Onda - CR Cota 220 (Soci), Artana (Ajuntament/Soci), Sax (Soci), Benicarló - Sant Gregori (Soci), Riba-roja de Túria - la Reva (Soci), Castielfabib - Arroyo Cerezo (Pròpia d'AVAMET), Tavernes de la Valldigna - Ull del Bou/Cambro (Soci), Chella - Casa Conde (Soci), El Genovés (Inforatge) - - -